Time;durP1;ratioP1;P1;durP2;ratioP2;P2;SDS_P1;SDS_P2;PMS_P1;PMS_P2;Temp;Humidity;BMP_temperature;BMP_pressure;BME280_temperature;BME280_humidity;BME280_pressure;Samples;Min_cycle;Max_cycle;Signal;HPM_P1;HPM_P2
2023/11/26 00:02:18;;;;;;;0.00;0.00;;;;;;;-0.04;80.84;100762.59;4857671;29;20060;-75
2023/11/26 00:04:44;;;;;;;0.10;0.10;;;;;;;-0.02;81.53;100760.56;4817546;29;20038;-75
2023/11/26 00:07:17;;;;;;;0.00;0.00;;;;;;;0.03;81.14;100762.66;4849373;29;20757;-81
2023/11/26 00:09:43;;;;;;;0.10;0.10;;;;;;;-0.15;80.78;100744.25;4832091;29;20128;-77
2023/11/26 00:12:08;;;;;;;0.00;0.00;;;;;;;-0.23;81.53;100737.97;4845864;29;20163;-78
2023/11/26 00:14:44;;;;;;;0.10;0.10;;;;;;;-0.30;81.53;100731.66;4822051;29;20548;-77
2023/11/26 00:17:12;;;;;;;0.00;0.00;;;;;;;-0.31;80.88;100735.38;4850471;29;20025;-78
2023/11/26 00:19:38;;;;;;;0.00;0.00;;;;;;;-0.31;81.66;100735.38;4841449;29;20029;-76
2023/11/26 00:22:04;;;;;;;0.00;0.00;;;;;;;-0.44;81.64;100721.75;4827171;29;20037;-78
2023/11/26 00:24:44;;;;;;;0.00;0.00;;;;;;;-0.47;81.21;100719.44;4874246;29;20033;-78
2023/11/26 00:27:09;;;;;;;0.10;0.10;;;;;;;-0.58;81.53;100701.97;4862275;29;20041;-78
2023/11/26 00:29:43;;;;;;;0.10;0.10;;;;;;;-0.41;81.77;100730.28;4839197;29;20629;-78
2023/11/26 00:32:16;;;;;;;0.10;0.10;;;;;;;-0.52;81.38;100713.81;4862378;29;20071;-77
2023/11/26 00:34:44;;;;;;;0.00;0.00;;;;;;;-0.33;82.15;100742.78;4858839;29;20037;-77
2023/11/26 00:37:10;;;;;;;0.00;0.00;;;;;;;-0.41;82.65;100729.44;4840845;29;20497;-78
2023/11/26 00:39:35;;;;;;;0.00;0.00;;;;;;;-0.42;81.69;100738.53;4836121;29;20044;-77
2023/11/26 00:42:01;;;;;;;0.10;0.10;;;;;;;-0.44;82.49;100740.56;4814575;29;20041;-77
2023/11/26 00:44:26;;;;;;;0.10;0.10;;;;;;;-0.47;81.67;100749.00;4838162;29;20128;-78
2023/11/26 00:46:53;;;;;;;0.00;0.00;;;;;;;-0.59;82.34;100741.41;4850608;29;20689;-78
2023/11/26 00:49:19;;;;;;;0.10;0.10;;;;;;;-0.72;82.19;100731.28;4833613;29;20037;-78
2023/11/26 00:51:44;;;;;;;0.10;0.10;;;;;;;-0.65;83.13;100747.50;4845802;29;20033;-79
2023/11/26 00:54:12;;;;;;;0.10;0.10;;;;;;;-0.76;82.71;100737.22;4844689;29;20411;-78
2023/11/26 00:56:37;;;;;;;0.10;0.10;;;;;;;-0.74;83.32;100746.75;4841008;29;20025;-79
2023/11/26 00:59:06;;;;;;;0.10;0.10;;;;;;;-0.71;83.61;100750.94;4837363;29;20044;-79
2023/11/26 01:01:37;;;;;;;0.10;0.10;;;;;;;-1.06;83.66;100694.22;4825983;29;20033;-81
2023/11/26 01:04:05;;;;;;;0.10;0.10;;;;;;;-0.98;83.29;100710.28;4833373;29;20036;-79
2023/11/26 01:06:34;;;;;;;0.00;0.00;;;;;;;-1.09;83.34;100690.06;4840086;29;20025;-78
2023/11/26 01:09:00;;;;;;;0.00;0.00;;;;;;;-1.11;83.07;100693.94;4851587;29;20142;-78
2023/11/26 01:11:28;;;;;;;0.00;0.00;;;;;;;-1.02;83.74;100714.34;4848998;29;20554;-79
2023/11/26 01:13:57;;;;;;;0.00;0.00;;;;;;;-0.89;83.66;100737.88;4837347;29;20065;-78
2023/11/26 01:16:25;;;;;;;0.00;0.00;;;;;;;-1.15;83.90;100689.97;4851171;29;20029;-77
2023/11/26 01:18:51;;;;;;;0.10;0.10;;;;;;;-0.97;84.15;100719.97;4832456;29;20071;-77
2023/11/26 01:21:23;;;;;;;0.00;0.00;;;;;;;-1.08;84.27;100696.25;4844403;29;20079;-78
2023/11/26 01:23:53;;;;;;;0.10;0.10;;;;;;;-1.13;83.78;100704.84;4837277;29;20036;-76
2023/11/26 01:26:18;;;;;;;0.10;0.10;;;;;;;-1.09;83.75;100710.72;4838590;29;20084;-78
2023/11/26 01:28:44;;;;;;;0.10;0.10;;;;;;;-1.07;83.87;100708.66;4859882;29;20029;-76
2023/11/26 01:31:13;;;;;;;0.10;0.10;;;;;;;-1.06;83.98;100713.84;4871254;29;20041;-78
2023/11/26 01:33:39;;;;;;;0.10;0.10;;;;;;;-1.16;83.89;100701.72;4847121;29;20353;-78
2023/11/26 01:36:09;;;;;;;0.00;0.00;;;;;;;-1.13;84.02;100698.66;4852953;29;20500;-77
2023/11/26 01:38:37;;;;;;;0.10;0.10;;;;;;;-1.15;84.62;100695.34;4821593;29;20068;-78
2023/11/26 01:41:02;;;;;;;0.00;0.00;;;;;;;-1.05;85.02;100701.28;4832321;29;20045;-79
2023/11/26 01:43:28;;;;;;;0.10;0.10;;;;;;;-1.10;84.06;100687.56;4867835;29;20013;-77
2023/11/26 01:46:24;;;;;;;0.10;0.10;;;;;;;-1.23;83.97;100656.84;4842646;29;20564;-80
2023/11/26 01:48:51;;;;;;;0.10;0.10;;;;;;;-0.96;84.50;100699.34;4860465;29;20045;-78
2023/11/26 01:51:24;;;;;;;0.00;0.00;;;;;;;-0.97;84.58;100717.28;4872455;29;20182;-78
2023/11/26 01:53:52;;;;;;;0.00;0.00;;;;;;;-1.01;84.40;100707.09;4871457;29;20375;-78
2023/11/26 01:56:18;;;;;;;0.10;0.10;;;;;;;-1.03;84.07;100691.19;4865857;29;20032;-78
2023/11/26 01:58:44;;;;;;;0.00;0.00;;;;;;;-1.04;85.02;100686.81;4870832;29;20029;-78
2023/11/26 02:01:13;;;;;;;0.10;0.10;;;;;;;-1.05;84.68;100690.53;4835459;29;20085;-79
2023/11/26 02:03:38;;;;;;;0.10;0.10;;;;;;;-1.06;84.70;100699.59;4850857;29;20041;-78
2023/11/26 02:06:05;;;;;;;0.10;0.10;;;;;;;-1.09;84.95;100698.13;4856856;29;20094;-79
2023/11/26 02:08:32;;;;;;;0.00;0.00;;;;;;;-1.08;84.33;100702.47;4846615;29;20750;-78
2023/11/26 02:10:59;;;;;;;0.10;0.10;;;;;;;-1.12;84.95;100689.59;4865565;29;20027;-79
2023/11/26 02:13:25;;;;;;;0.00;0.00;;;;;;;-1.15;85.07;100690.78;4861900;29;20040;-76
2023/11/26 02:15:51;;;;;;;0.00;0.00;;;;;;;-1.11;85.42;100697.47;4872189;29;20044;-78
2023/11/26 02:18:19;;;;;;;0.10;0.10;;;;;;;-1.35;85.48;100658.28;4874188;29;20029;-78
2023/11/26 02:20:47;;;;;;;0.10;0.10;;;;;;;-1.13;85.28;100695.97;4844013;29;20115;-79
2023/11/26 02:23:13;;;;;;;0.10;0.10;;;;;;;-1.27;85.10;100682.34;4837848;29;20040;-78
2023/11/26 02:25:46;;;;;;;0.00;0.00;;;;;;;-1.23;85.33;100694.41;4854329;29;21010;-78
2023/11/26 02:28:11;;;;;;;0.10;0.10;;;;;;;-1.34;85.19;100670.69;4844571;29;20476;-79
2023/11/26 02:30:39;;;;;;;0.00;0.00;;;;;;;-1.28;85.01;100679.84;4833908;29;20036;-78
2023/11/26 02:33:06;;;;;;;0.10;0.10;;;;;;;-1.20;86.12;100695.03;4856721;29;20404;-77
2023/11/26 02:35:32;;;;;;;0.10;0.10;;;;;;;-1.18;85.63;100690.31;4858356;29;20027;-79
2023/11/26 02:38:02;;;;;;;0.10;0.10;;;;;;;-1.19;85.38;100672.56;4841205;29;20115;-77
2023/11/26 02:40:29;;;;;;;0.00;0.00;;;;;;;-1.18;85.63;100668.84;4853790;29;20594;-78
2023/11/26 02:43:04;;;;;;;0.00;0.00;;;;;;;-1.28;84.93;100645.78;4836831;29;20052;-79
2023/11/26 02:45:29;;;;;;;;;;;;;;;-1.03;84.82;100675.06;4865616;29;20040;-78
2023/11/26 02:47:55;;;;;;;0.10;0.10;;;;;;;-1.20;85.28;100636.00;4864810;29;19912;-78
2023/11/26 02:50:20;;;;;;;0.10;0.10;;;;;;;-1.00;85.57;100668.50;4837192;29;20045;-78
2023/11/26 02:52:46;;;;;;;0.00;0.00;;;;;;;-1.05;85.58;100655.66;4852836;29;20428;-79
2023/11/26 02:55:11;;;;;;;0.10;0.10;;;;;;;-0.92;85.42;100671.94;4859443;29;20418;-78
2023/11/26 02:57:37;;;;;;;0.10;0.10;;;;;;;-0.92;85.40;100658.53;4853099;29;20043;-79
2023/11/26 03:00:08;;;;;;;0.00;0.00;;;;;;;-0.84;85.53;100660.28;4837029;29;20045;-78
2023/11/26 03:02:34;;;;;;;0.10;0.10;;;;;;;-1.03;84.58;100624.06;4868703;29;20037;-77
2023/11/26 03:05:05;;;;;;;0.10;0.10;;;;;;;-0.69;84.64;100672.88;4846753;29;20094;-79
2023/11/26 03:07:33;;;;;;;0.10;0.10;;;;;;;-0.75;84.78;100637.66;4854065;29;20037;-77
2023/11/26 03:15:26;;;;;;;0.00;0.00;;;;;;;-0.29;83.61;100633.91;4845800;29;20048;-79
2023/11/26 03:17:52;;;;;;;0.10;0.10;;;;;;;-0.17;83.43;100628.03;4826388;29;20029;-80
2023/11/26 03:20:17;;;;;;;0.10;0.10;;;;;;;-0.03;83.49;100629.81;4836098;29;20139;-78
2023/11/26 03:22:43;;;;;;;0.00;0.00;;;;;;;0.03;83.12;100634.44;4829925;29;20022;-78
2023/11/26 03:25:08;;;;;;;0.00;0.00;;;;;;;0.06;83.32;100626.00;4833484;29;20055;-75
2023/11/26 03:27:34;;;;;;;0.10;0.10;;;;;;;0.24;82.61;100647.06;4840454;29;20120;-76
2023/11/26 03:30:00;;;;;;;0.10;0.10;;;;;;;0.18;82.72;100620.94;4858785;29;20033;-77
2023/11/26 03:32:27;;;;;;;0.00;0.00;;;;;;;0.29;82.63;100628.50;4864040;29;20168;-78
2023/11/26 03:34:53;;;;;;;0.10;0.10;;;;;;;0.26;83.13;100628.03;4845126;29;20075;-79
2023/11/26 03:37:22;;;;;;;0.10;0.10;;;;;;;0.24;82.71;100613.97;4862634;29;20132;-80
2023/11/26 03:39:47;;;;;;;0.00;0.00;;;;;;;0.37;82.77;100635.59;4839453;29;20804;-79
2023/11/26 03:42:14;;;;;;;0.10;0.10;;;;;;;0.10;82.27;100588.78;4842530;29;20037;-79
2023/11/26 03:44:41;;;;;;;0.00;0.00;;;;;;;0.40;82.33;100629.81;4858423;29;20037;-76
2023/11/26 03:47:08;;;;;;;0.10;0.10;;;;;;;0.57;82.66;100637.59;4857507;29;20060;-77
2023/11/26 03:49:33;;;;;;;0.00;0.00;;;;;;;0.45;81.67;100605.88;4855595;29;20433;-78
2023/11/26 03:52:04;;;;;;;0.10;0.10;;;;;;;0.59;81.78;100616.72;4869815;29;20108;-80
2023/11/26 03:54:29;;;;;;;0.10;0.10;;;;;;;0.47;81.77;100590.34;4851150;29;20460;-80
2023/11/26 03:56:57;;;;;;;0.10;0.10;;;;;;;0.61;82.14;100620.03;4849534;29;20048;-78
2023/11/26 03:59:27;;;;;;;0.10;0.10;;;;;;;0.52;81.70;100601.34;4846646;29;20092;-79
2023/11/26 04:02:03;;;;;;;0.00;0.00;;;;;;;0.65;81.93;100615.94;4852547;29;20029;-78
2023/11/26 04:04:37;;;;;;;0.00;0.00;;;;;;;0.46;82.26;100577.91;4849526;29;20077;-78
2023/11/26 04:07:03;;;;;;;0.10;0.10;;;;;;;0.57;82.33;100602.63;4869862;29;20033;-78
2023/11/26 04:09:29;;;;;;;0.00;0.00;;;;;;;0.72;81.72;100627.59;4848981;29;20486;-77
2023/11/26 04:11:58;;;;;;;0.00;0.00;;;;;;;0.50;82.02;100591.81;4858440;29;20399;-78
2023/11/26 04:14:24;;;;;;;0.10;0.10;;;;;;;0.70;82.23;100629.63;4866384;29;20092;-79
2023/11/26 04:16:50;;;;;;;0.10;0.10;;;;;;;0.63;82.34;100613.44;4846746;29;20026;-79
2023/11/26 04:19:16;;;;;;;0.10;0.10;;;;;;;0.51;81.87;100593.47;4829083;29;20120;-79
2023/11/26 04:21:45;;;;;;;0.10;0.10;;;;;;;0.57;82.11;100597.22;4861490;29;20033;-77
2023/11/26 04:24:15;;;;;;;0.10;0.10;;;;;;;0.54;82.22;100592.25;4842348;29;20404;-77
2023/11/26 04:26:40;;;;;;;0.00;0.00;;;;;;;0.54;82.04;100592.25;4833844;29;20469;-77
2023/11/26 04:29:06;;;;;;;0.10;0.10;;;;;;;0.59;82.33;100605.97;4855416;29;20084;-80
2023/11/26 04:31:32;;;;;;;0.10;0.10;;;;;;;0.54;82.04;100592.25;4865851;29;20142;-77
2023/11/26 04:33:57;;;;;;;0.10;0.10;;;;;;;0.32;82.08;100557.31;4849431;29;20029;-78
2023/11/26 04:36:28;;;;;;;0.10;0.10;;;;;;;0.51;82.15;100588.94;4870920;29;20132;-78
2023/11/26 04:38:54;;;;;;;0.00;0.00;;;;;;;0.59;81.95;100600.56;4837457;29;20036;-78
2023/11/26 04:41:21;;;;;;;0.10;0.10;;;;;;;0.56;82.01;100601.78;4845367;29;20041;-77
2023/11/26 04:43:47;;;;;;;0.00;0.00;;;;;;;0.43;81.94;100581.00;4835785;29;20030;-77
2023/11/26 04:46:17;;;;;;;0.10;0.10;;;;;;;0.46;82.29;100587.84;4835828;29;20041;-77
2023/11/26 04:48:45;;;;;;;0.00;0.00;;;;;;;0.34;81.70;100583.00;4820484;29;21508;-78
2023/11/26 04:51:10;;;;;;;0.10;0.10;;;;;;;0.38;82.61;100585.28;4841942;29;20032;-77
2023/11/26 04:53:39;;;;;;;0.10;0.10;;;;;;;0.40;82.25;100585.94;4839241;29;20502;-76
2023/11/26 04:56:05;;;;;;;0.10;0.10;;;;;;;0.25;82.48;100559.09;4835172;29;20054;-78
2023/11/26 04:58:30;;;;;;;0.00;0.00;;;;;;;0.41;81.88;100579.53;4860063;29;20034;-78
2023/11/26 05:00:56;;;;;;;0.10;0.10;;;;;;;0.34;81.77;100571.41;4834379;29;20092;-77
2023/11/26 05:03:22;;;;;;;0.00;0.00;;;;;;;0.31;82.13;100571.81;4846825;29;20085;-77
2023/11/26 05:05:48;;;;;;;0.00;0.00;;;;;;;0.27;82.17;100554.38;4821197;29;20029;-76
2023/11/26 05:08:14;;;;;;;0.10;0.10;;;;;;;0.32;82.52;100570.75;4835229;29;20108;-76
2023/11/26 05:10:39;;;;;;;0.00;0.00;;;;;;;0.40;82.39;100576.00;4841989;29;20572;-77
2023/11/26 05:13:05;;;;;;;0.10;0.10;;;;;;;0.49;81.91;100585.59;4846812;29;20093;-78
2023/11/26 05:15:30;;;;;;;0.00;0.00;;;;;;;0.55;81.35;100594.75;4845778;29;20041;-76
2023/11/26 05:17:56;;;;;;;0.10;0.10;;;;;;;0.60;81.23;100588.75;4845152;29;20080;-77
2023/11/26 05:20:24;;;;;;;0.10;0.10;;;;;;;0.71;81.47;100582.84;4865115;29;20097;-77
2023/11/26 05:22:50;;;;;;;0.10;0.10;;;;;;;0.82;80.64;100574.22;4864263;29;20057;-76
2023/11/26 05:25:16;;;;;;;0.10;0.10;;;;;;;0.91;80.88;100571.38;4822672;29;20587;-77
2023/11/26 05:27:41;;;;;;;0.00;0.00;;;;;;;0.90;80.40;100558.94;4866625;29;20037;-77
2023/11/26 05:30:09;;;;;;;0.00;0.00;;;;;;;0.99;80.93;100563.13;4869162;29;20084;-77
2023/11/26 05:32:34;;;;;;;0.00;0.00;;;;;;;0.83;80.46;100535.50;4853762;29;20120;-77
2023/11/26 05:35:08;;;;;;;0.10;0.10;;;;;;;0.98;80.64;100545.28;4857897;29;20111;-76
2023/11/26 05:37:34;;;;;;;0.10;0.10;;;;;;;1.07;80.40;100554.88;4842239;29;20056;-77
2023/11/26 05:39:59;;;;;;;0.10;0.10;;;;;;;1.16;80.54;100558.25;4857942;29;20049;-78
2023/11/26 05:42:25;;;;;;;0.10;0.10;;;;;;;1.22;80.10;100558.25;4864283;29;20531;-76
2023/11/26 05:44:50;;;;;;;0.00;0.00;;;;;;;1.20;80.20;100537.94;4841756;29;20044;-77
2023/11/26 05:47:15;;;;;;;0.00;0.00;;;;;;;1.36;80.22;100561.00;4833366;29;20112;-77
2023/11/26 05:49:41;;;;;;;0.10;0.10;;;;;;;1.30;80.04;100545.63;4841942;29;20068;-77
2023/11/26 05:52:06;;;;;;;0.10;0.10;;;;;;;1.34;79.82;100530.72;4840597;29;20392;-77
2023/11/26 05:54:32;;;;;;;0.00;0.00;;;;;;;1.46;80.04;100536.34;4838128;29;20361;-77
2023/11/26 05:57:04;;;;;;;0.00;0.00;;;;;;;1.50;79.77;100541.13;4825223;29;20050;-77
2023/11/26 05:59:30;;;;;;;0.00;0.00;;;;;;;1.62;79.64;100545.94;4837539;29;20041;-78
2023/11/26 06:01:55;;;;;;;0.10;0.10;;;;;;;1.61;79.30;100538.88;4831631;29;20160;-78
2023/11/26 06:04:22;;;;;;;0.00;0.00;;;;;;;1.74;79.57;100555.09;4853547;29;20033;-77
2023/11/26 06:06:47;;;;;;;0.10;0.10;;;;;;;1.63;79.44;100520.66;4869591;29;20132;-76
2023/11/26 06:09:15;;;;;;;0.00;0.00;;;;;;;1.82;79.38;100541.41;4863071;29;20042;-78
2023/11/26 06:11:41;;;;;;;0.00;0.00;;;;;;;1.78;78.95;100526.66;4862936;29;20037;-78
2023/11/26 06:14:06;;;;;;;0.10;0.10;;;;;;;1.63;78.63;100505.28;4829078;29;20030;-79
2023/11/26 06:16:32;;;;;;;0.10;0.10;;;;;;;1.87;79.00;100544.34;4839548;29;20119;-78
2023/11/26 06:18:57;;;;;;;0.00;0.00;;;;;;;1.77;79.01;100525.03;4857951;29;20037;-78
2023/11/26 06:21:22;;;;;;;0.10;0.10;;;;;;;1.82;78.80;100533.31;4847388;29;20033;-77
2023/11/26 06:23:48;;;;;;;0.00;0.00;;;;;;;1.79;78.69;100528.34;4837948;29;20026;-76
2023/11/26 06:26:17;;;;;;;0.00;0.00;;;;;;;1.84;78.45;100536.66;4850615;29;20070;-77
2023/11/26 06:28:42;;;;;;;0.10;0.10;;;;;;;1.72;78.10;100514.88;4857128;29;20077;-78
2023/11/26 06:31:08;;;;;;;0.00;0.00;;;;;;;1.79;78.07;100536.44;4840173;29;20060;-77
2023/11/26 06:33:33;;;;;;;0.10;0.10;;;;;;;1.64;78.63;100511.53;4853092;29;20061;-75
2023/11/26 06:36:00;;;;;;;0.10;0.10;;;;;;;1.80;78.82;100532.72;4868648;29;20799;-77
2023/11/26 06:38:27;;;;;;;0.10;0.10;;;;;;;1.81;78.55;100526.28;4840884;29;20045;-79
2023/11/26 06:40:53;;;;;;;0.10;0.10;;;;;;;1.83;78.19;100532.28;4850009;29;20544;-76
2023/11/26 06:43:18;;;;;;;0.00;0.00;;;;;;;1.73;78.38;100510.28;4838912;29;20046;-76
2023/11/26 06:45:43;;;;;;;0.10;0.10;;;;;;;1.66;78.44;100499.50;4847572;29;20053;-77
2023/11/26 06:48:09;;;;;;;0.10;0.10;;;;;;;1.73;78.56;100513.00;4838538;29;20094;-77
2023/11/26 06:50:35;;;;;;;0.10;0.10;;;;;;;1.71;77.97;100523.16;4839713;29;20116;-77
2023/11/26 06:53:00;;;;;;;0.00;0.00;;;;;;;1.65;78.03;100503.25;4853081;29;20042;-77
2023/11/26 06:55:26;;;;;;;0.10;0.10;;;;;;;1.79;79.15;100524.81;4849254;29;20025;-76
2023/11/26 06:57:51;;;;;;;0.00;0.00;;;;;;;1.77;78.54;100510.69;4848688;29;20382;-77
2023/11/26 07:00:18;;;;;;;0.10;0.10;;;;;;;1.87;78.29;100521.91;4830423;29;20034;-78
2023/11/26 07:02:45;;;;;;;0.10;0.10;;;;;;;1.92;78.10;100509.47;4844962;29;20034;-78
2023/11/26 07:05:12;;;;;;;0.10;0.10;;;;;;;1.98;78.45;100496.22;4829358;29;20034;-78
2023/11/26 07:07:38;;;;;;;0.10;0.10;;;;;;;1.99;78.26;100493.31;4858126;29;20022;-78
2023/11/26 07:10:04;;;;;;;0.00;0.00;;;;;;;2.03;77.91;100491.00;4839333;29;20087;-79
2023/11/26 07:12:31;;;;;;;0.00;0.00;;;;;;;2.02;78.03;100486.66;4824617;29;20037;-78
2023/11/26 07:14:58;;;;;;;0.10;0.10;;;;;;;2.17;77.87;100503.44;4845915;29;20026;-77
2023/11/26 07:17:25;;;;;;;0.10;0.10;;;;;;;2.05;77.36;100481.66;4848713;29;20042;-79
2023/11/26 07:19:53;;;;;;;0.00;0.00;;;;;;;2.04;77.59;100484.56;4845265;29;20063;-78
2023/11/26 07:22:18;;;;;;;0.00;0.00;;;;;;;2.16;77.75;100507.22;4842326;29;20037;-79
2023/11/26 07:24:43;;;;;;;0.00;0.00;;;;;;;2.04;77.78;100496.19;4854591;29;20857;-79
2023/11/26 07:27:09;;;;;;;0.10;0.10;;;;;;;2.01;78.07;100501.19;4825760;29;20033;-80
2023/11/26 07:29:34;;;;;;;0.00;0.00;;;;;;;1.91;77.67;100488.94;4835874;29;20066;-79
2023/11/26 07:32:00;;;;;;;0.10;0.10;;;;;;;1.92;78.10;100504.06;4819287;29;20038;-80
2023/11/26 07:34:26;;;;;;;0.00;0.00;;;;;;;1.73;78.51;100475.25;4830247;29;20042;-78
2023/11/26 07:36:51;;;;;;;0.00;0.00;;;;;;;1.88;78.41;100496.63;4818702;29;20046;-78
2023/11/26 07:39:17;;;;;;;0.10;0.10;;;;;;;1.86;78.41;100485.22;4834093;29;20038;-80
2023/11/26 07:41:46;;;;;;;0.00;0.00;;;;;;;1.94;78.25;100489.56;4813251;29;20034;-79
2023/11/26 07:44:14;;;;;;;0.00;0.00;;;;;;;1.86;78.12;100466.34;4851551;29;20049;-81
2023/11/26 07:46:43;;;;;;;0.10;0.10;;;;;;;2.04;78.39;100484.56;4825939;29;20042;-80
2023/11/26 07:49:08;;;;;;;0.00;0.00;;;;;;;2.07;77.89;100486.84;4846956;29;20033;-79
2023/11/26 07:51:36;;;;;;;0.10;0.10;;;;;;;2.09;77.95;100492.91;4825677;29;20086;-78
2023/11/26 07:54:02;;;;;;;0.00;0.00;;;;;;;2.11;78.39;100493.50;4839079;29;20034;-80
2023/11/26 07:56:28;;;;;;;0.00;0.00;;;;;;;2.06;78.24;100469.84;4800655;29;20140;-79
2023/11/26 07:58:53;;;;;;;0.00;0.00;;;;;;;2.15;78.18;100465.06;4829613;29;20382;-81
2023/11/26 08:01:22;;;;;;;0.10;0.10;;;;;;;2.20;78.26;100459.03;4834603;29;20040;-78
2023/11/26 08:03:50;;;;;;;0.00;0.00;;;;;;;2.30;77.75;100450.53;4813826;29;20073;-79
2023/11/26 08:06:15;;;;;;;0.10;0.10;;;;;;;2.50;77.74;100475.59;4834103;29;20030;-79
2023/11/26 08:08:43;;;;;;;0.00;0.00;;;;;;;2.43;77.66;100458.59;4845210;29;20495;-79
2023/11/26 08:11:10;;;;;;;0.10;0.10;;;;;;;2.58;77.84;100469.94;4831086;29;20052;-79
2023/11/26 08:13:39;;;;;;;0.10;0.10;;;;;;;2.68;77.33;100476.78;4834932;29;20041;-78
2023/11/26 08:16:07;;;;;;;0.10;0.10;;;;;;;2.79;77.37;100476.16;4840993;29;20027;-77
2023/11/26 08:18:35;;;;;;;0.10;0.10;;;;;;;2.85;77.30;100477.97;4843725;29;20069;-79
2023/11/26 08:21:06;;;;;;;0.10;0.10;;;;;;;2.80;76.94;100469.69;4843847;29;20062;-79
2023/11/26 08:23:33;;;;;;;0.10;0.10;;;;;;;2.87;76.83;100473.19;4813814;29;20106;-79
2023/11/26 08:26:00;;;;;;;0.00;0.00;;;;;;;3.02;77.33;100491.81;4830507;29;20041;-78
2023/11/26 08:28:28;;;;;;;0.10;0.10;;;;;;;2.96;76.92;100471.91;4819064;29;20038;-80
2023/11/26 08:30:55;;;;;;;0.10;0.10;;;;;;;3.05;77.17;100474.34;4841387;29;20046;-78
2023/11/26 08:33:22;;;;;;;0.10;0.10;;;;;;;3.23;76.77;100473.66;4824822;29;20064;-77
2023/11/26 08:35:52;;;;;;;0.10;0.10;;;;;;;3.26;77.00;100470.53;4831115;29;20046;-78
2023/11/26 08:38:19;;;;;;;0.00;0.00;;;;;;;3.26;76.57;100454.31;4854463;29;20142;-79
2023/11/26 08:40:45;;;;;;;0.10;0.10;;;;;;;3.37;76.43;100460.88;4824971;29;20065;-77
2023/11/26 08:43:13;;;;;;;0.00;0.00;;;;;;;3.38;76.22;100446.34;4840640;29;20447;-77
2023/11/26 08:45:42;;;;;;;0.00;0.00;;;;;;;3.42;76.55;100459.19;4836430;29;20057;-78
2023/11/26 08:48:10;;;;;;;0.00;0.00;;;;;;;3.50;76.48;100460.78;4826740;29;20465;-79
2023/11/26 08:50:36;;;;;;;0.10;0.10;;;;;;;3.34;76.79;100445.09;4841836;29;20525;-79
2023/11/26 08:53:05;;;;;;;0.00;0.00;;;;;;;3.39;76.41;100458.78;4858538;29;20049;-78
2023/11/26 08:55:34;;;;;;;0.00;0.00;;;;;;;3.26;77.02;100438.91;4838294;29;20049;-77
2023/11/26 08:58:00;;;;;;;0.00;0.00;;;;;;;3.17;77.16;100426.72;4853363;29;20538;-78
2023/11/26 09:00:26;;;;;;;0.00;0.00;;;;;;;3.22;77.15;100426.06;4852480;29;20033;-79
2023/11/26 09:02:52;;;;;;;0.00;0.00;;;;;;;3.20;77.03;100428.13;4857453;29;20055;-76
2023/11/26 09:05:17;;;;;;;0.00;0.00;;;;;;;3.25;77.37;100442.66;4846790;29;20021;-76
2023/11/26 09:07:45;;;;;;;0.00;0.00;;;;;;;3.42;77.00;100463.78;4842327;29;20061;-77
2023/11/26 09:10:12;;;;;;;0.00;0.00;;;;;;;3.32;77.12;100437.22;4839846;29;20048;-77
2023/11/26 09:12:38;;;;;;;0.00;0.00;;;;;;;3.29;76.73;100424.13;4854319;29;20038;-76
2023/11/26 09:15:10;;;;;;;0.00;0.00;;;;;;;3.37;77.35;100417.63;4854146;29;20504;-79
2023/11/26 09:17:37;;;;;;;0.00;0.00;;;;;;;3.52;77.12;100418.16;4836035;29;20026;-78
2023/11/26 09:20:03;;;;;;;0.10;0.10;;;;;;;3.80;77.32;100438.53;4840976;29;20120;-79
2023/11/26 09:22:34;;;;;;;0.00;0.00;;;;;;;3.67;76.23;100415.94;4850290;29;20534;-79
2023/11/26 09:24:59;;;;;;;0.00;0.00;;;;;;;3.91;77.15;100437.78;4843193;29;20038;-79
2023/11/26 09:27:25;;;;;;;0.10;0.10;;;;;;;3.90;76.90;100438.88;4829517;29;20355;-78
2023/11/26 09:29:52;;;;;;;0.00;0.00;;;;;;;3.78;76.86;100421.69;4825248;29;20059;-77
2023/11/26 09:32:17;;;;;;;0.00;0.00;;;;;;;3.77;77.08;100428.16;4841945;29;20716;-76
2023/11/26 09:34:43;;;;;;;0.00;0.00;;;;;;;3.82;76.90;100436.44;4837436;29;20061;-76
2023/11/26 09:37:09;;;;;;;0.00;0.00;;;;;;;3.83;77.30;100427.28;4812573;29;20058;-76
2023/11/26 09:39:35;;;;;;;0.10;0.10;;;;;;;3.67;77.23;100418.66;4838891;29;20056;-76
2023/11/26 09:42:01;;;;;;;0.00;0.00;;;;;;;3.85;76.83;100446.81;4839819;29;20484;-76
2023/11/26 09:44:27;;;;;;;0.00;0.00;;;;;;;3.90;77.01;100444.28;4847976;29;20104;-76
2023/11/26 09:46:53;;;;;;;0.00;0.00;;;;;;;3.78;77.78;100418.97;4841811;29;20085;-75
2023/11/26 09:49:21;;;;;;;0.00;0.00;;;;;;;3.76;76.93;100410.28;4858858;29;20124;-78
2023/11/26 09:51:57;;;;;;;0.00;0.00;;;;;;;3.78;77.31;100424.38;4847267;29;20101;-77
2023/11/26 09:54:25;;;;;;;0.00;0.00;;;;;;;3.85;77.85;100435.97;4846088;29;20386;-76
2023/11/26 09:57:02;;;;;;;0.00;0.00;;;;;;;3.69;77.30;100414.91;4844151;29;20057;-77
2023/11/26 09:59:30;;;;;;;0.00;0.00;;;;;;;3.67;78.08;100407.00;4852789;29;20029;-77
2023/11/26 10:01:58;;;;;;;0.00;0.00;;;;;;;3.75;78.58;100416.72;4847400;29;20021;-77
2023/11/26 10:04:43;;;;;;;0.00;0.00;;;;;;;3.79;77.87;100415.22;4851131;29;20025;-76
2023/11/26 10:07:09;;;;;;;0.00;0.00;;;;;;;3.94;77.67;100402.22;4846480;29;20418;-78
2023/11/26 10:09:36;;;;;;;0.00;0.00;;;;;;;4.05;78.55;100391.69;4859991;29;20032;-77
2023/11/26 10:12:01;;;;;;;0.00;0.00;;;;;;;4.08;78.23;100402.06;4858616;29;20061;-77
2023/11/26 10:14:27;;;;;;;0.10;0.10;;;;;;;3.99;78.16;100390.72;4854136;29;20068;-77
2023/11/26 10:16:54;;;;;;;0.10;0.10;;;;;;;4.02;78.43;100406.50;4830402;29;20048;-77
2023/11/26 10:19:26;;;;;;;0.00;0.00;;;;;;;4.00;78.88;100405.88;4839026;29;20548;-79
2023/11/26 10:21:58;;;;;;;0.00;0.00;;;;;;;3.76;80.08;100399.44;4843087;29;20077;-78
2023/11/26 10:24:28;;;;;;;0.00;0.00;;;;;;;3.68;80.42;100395.16;4864411;29;20034;-79
2023/11/26 10:26:54;;;;;;;0.00;0.00;;;;;;;3.63;80.71;100384.97;4840901;29;20125;-80
2023/11/26 10:29:30;;;;;;;0.10;0.10;;;;;;;3.58;81.13;100379.41;4837160;29;20125;-78
2023/11/26 10:32:01;;;;;;;0.00;0.00;;;;;;;3.76;81.29;100404.84;4860381;29;20045;-79
2023/11/26 10:34:31;;;;;;;0.10;0.10;;;;;;;3.86;81.55;100405.19;4857018;29;20062;-80
2023/11/26 10:36:57;;;;;;;0.00;0.00;;;;;;;3.73;81.10;100373.66;4850630;29;20068;-79
2023/11/26 10:39:23;;;;;;;0.00;0.00;;;;;;;4.01;81.11;100397.53;4856041;29;20034;-78
2023/11/26 10:41:54;;;;;;;0.00;0.00;;;;;;;3.96;82.08;100381.16;4862405;29;20033;-79
2023/11/26 10:44:21;;;;;;;0.00;0.00;;;;;;;3.89;82.01;100364.16;4851128;29;20053;-78
2023/11/26 10:46:48;;;;;;;0.00;0.00;;;;;;;4.17;81.64;100371.75;4829971;29;20026;-77
2023/11/26 10:49:35;;;;;;;0.00;0.00;;;;;;;4.49;81.43;100368.09;4834474;29;20033;-77
2023/11/26 10:52:16;;;;;;;0.00;0.00;;;;;;;4.86;81.38;100376.16;4851181;29;20040;-79
2023/11/26 10:55:02;;;;;;;0.00;0.00;;;;;;;5.01;80.12;100363.00;4855757;29;20045;-78
2023/11/26 10:57:41;;;;;;;0.00;0.00;;;;;;;5.03;80.97;100358.19;4850336;29;20013;-78
2023/11/26 11:00:10;;;;;;;0.00;0.00;;;;;;;5.10;80.87;100355.38;4854895;29;20500;-78
2023/11/26 11:02:36;;;;;;;0.00;0.00;;;;;;;5.17;80.30;100333.56;4849323;29;20493;-78
2023/11/26 11:05:05;;;;;;;0.00;0.00;;;;;;;5.28;80.13;100330.06;4843439;29;20033;-78
2023/11/26 11:07:37;;;;;;;0.00;0.00;;;;;;;5.40;80.11;100333.63;4848949;29;20062;-77
2023/11/26 11:10:24;;;;;;;0.00;0.00;;;;;;;5.59;79.85;100328.09;4845629;29;20030;-79
2023/11/26 11:13:00;;;;;;;0.10;0.10;;;;;;;5.65;79.35;100340.75;4853353;29;20117;-80
2023/11/26 11:15:28;;;;;;;0.10;0.10;;;;;;;5.46;79.57;100321.03;4844374;29;20105;-79
2023/11/26 11:17:56;;;;;;;0.00;0.00;;;;;;;5.40;81.19;100317.38;4831728;29;20086;-78
2023/11/26 11:21:09;;;;;;;0.00;0.00;;;;;;;5.42;80.80;100328.78;4859575;29;20063;-80
2023/11/26 11:23:46;;;;;;;0.00;0.00;;;;;;;5.28;81.14;100327.34;4855649;29;20025;-79
2023/11/26 11:26:15;;;;;;;0.00;0.00;;;;;;;5.24;81.80;100318.03;4842536;29;20113;-77
2023/11/26 11:28:49;;;;;;;0.00;0.00;;;;;;;5.19;82.94;100296.22;4849480;29;20033;-78
2023/11/26 11:31:17;;;;;;;0.00;0.00;;;;;;;5.41;83.22;100313.56;4837335;29;20128;-78
2023/11/26 11:33:59;;;;;;;0.00;0.00;;;;;;;5.55;82.94;100307.94;4857722;29;21055;-79
2023/11/26 11:36:49;;;;;;;0.00;0.00;;;;;;;5.74;82.64;100306.75;4849638;29;20049;-76
2023/11/26 11:39:17;;;;;;;0.00;0.00;;;;;;;5.86;81.31;100292.34;4847590;29;20819;-80
2023/11/26 11:41:58;;;;;;;0.00;0.00;;;;;;;6.06;82.08;100298.25;4850215;29;20057;-78